Andong, South Korea

1:12 PM KST on September 01, 2016 (GMT +0900)
Daegu | | Change Station

Elev 115 ft 35.89 °N, 128.66 °E | Updated 12 minutes ago

Scattered Clouds
Scattered Clouds
88 °F
Feels Like 88 °F
N
9
Wind Variable Wind from SSW

Today
High -- | Low -- °F
--% Chance of Precip.
Yesterday
High -- | Low -- °F
Precip. -- in
Pressure 29.59 in
Visibility 6.2 miles
Clouds Scattered Clouds 4000 ft
Heat Index 88 °F
Dew Point 61 °F
Humidity 40%
Rainfall 0.00 in
Snow Depth Not available.
5:56 AM 6:53 PM
Waning Crescent, 0% visible
METAR RKTN 010400Z 20008KT 9999 SCT040 31/16 Q1002 NOSIG
Pressure 29.59 in
Visibility 6.2 miles
Clouds Scattered Clouds 4000 ft
Heat Index 88 °F
Dew Point 61 °F
Humidity 40%
Rainfall 0.00 in
Snow Depth Not available.
5:56 AM 6:53 PM
Waning Crescent, 0% visible
METAR RKTN 010400Z 20008KT 9999 SCT040 31/16 Q1002 NOSIG

10-Day Weather Forecast

No radar image for this location.
×

Almanac

Astronomy

Sep. 01, 2016 Rise Set
Actual Time
Civil Twilight
Nautical Twilight
Astronomical Twilight
Moon
Length of Visible Light
Length of Day
Tomorrow will be .
, % of the Moon is Illuminated

Today's Extremes

Country Highs Country Lows

Community

WunderPhotos

Upload Photos

1,936,302 photos uploaded!

WunderBlog® & News

Nearby

Air Quality

  Air Quality AQ Index Pollutant
Not available.

Snow Depth

Station Depth Elevation

Earthquake Activity

City Distance Mag. Time & Date
Minimum magnitude displayed is 2.5.

Coastal Water Temperatures

Place Temperature

Stations

Nearby Weather Stations

Station Location Temp. Windchill Dew Point Humidity Wind Precip. Elev Updated Type